Time;durP1;ratioP1;P1;durP2;ratioP2;P2;SDS_P1;SDS_P2;PMS_P1;PMS_P2;Temp;Humidity;BMP_temperature;BMP_pressure;BME280_temperature;BME280_humidity;BME280_pressure;Samples;Min_cycle;Max_cycle;Signal;HPM_P1;HPM_P2
2021/07/16 00:01:18;;;;;;;16.70;8.38;;;22.50;99.90;;;;;;4915816;29;20221;-88
2021/07/16 00:03:44;;;;;;;16.50;8.18;;;22.50;99.90;;;;;;4915201;29;20239;-88
2021/07/16 00:06:09;;;;;;;15.80;8.35;;;22.60;99.90;;;;;;4915426;29;20208;-88
2021/07/16 00:08:35;;;;;;;16.63;8.18;;;22.50;99.90;;;;;;4915300;29;20185;-88
2021/07/16 00:11:01;;;;;;;18.25;8.18;;;22.60;99.90;;;;;;4914921;29;20180;-88
2021/07/16 00:13:26;;;;;;;14.65;7.40;;;22.60;99.90;;;;;;4915133;29;20198;-88
2021/07/16 00:15:52;;;;;;;15.73;8.38;;;22.60;99.90;;;;;;4899300;29;20347;-88
2021/07/16 00:18:18;;;;;;;18.70;7.72;;;21.40;99.90;;;;;;4915053;29;20191;-89
2021/07/16 00:20:44;;;;;;;17.25;8.50;;;22.60;99.90;;;;;;4914887;29;20556;-88
2021/07/16 00:23:11;;;;;;;20.13;8.13;;;22.80;99.90;;;;;;4915310;29;20271;-88
2021/07/16 00:25:37;;;;;;;18.08;7.82;;;22.60;99.90;;;;;;4916353;29;20688;-88
2021/07/16 00:28:03;;;;;;;18.13;8.73;;;22.70;99.90;;;;;;4914929;29;20240;-88
2021/07/16 00:30:32;;;;;;;14.80;7.68;;;22.60;99.90;;;;;;4899547;29;20256;-87
2021/07/16 00:32:57;;;;;;;19.52;8.27;;;22.70;99.90;;;;;;4899547;29;20236;-88
2021/07/16 00:35:23;;;;;;;15.15;8.63;;;22.70;99.90;;;;;;4920558;29;20299;-87
2021/07/16 00:37:49;;;;;;;20.73;10.73;;;22.70;99.90;;;;;;4919764;29;20240;-88
2021/07/16 00:40:15;;;;;;;12.63;8.90;;;20.90;99.90;;;;;;4918909;29;20173;-88
2021/07/16 00:42:41;;;;;;;18.55;8.00;;;22.80;99.90;;;;;;4918684;29;20248;-87
2021/07/16 00:45:13;;;;;;;17.48;7.88;;;22.80;99.90;;;;;;4918802;29;20188;-87
2021/07/16 00:47:39;;;;;;;10.73;7.82;;;22.60;99.90;;;;;;4918186;29;20219;-88
2021/07/16 00:50:08;;;;;;;14.75;8.35;;;22.70;99.90;;;;;;4918323;29;20199;-89
2021/07/16 00:52:37;;;;;;;18.83;7.97;;;22.60;99.90;;;;;;4918713;29;20181;-88
2021/07/16 00:55:05;;;;;;;18.00;8.00;;;22.60;99.90;;;;;;4919454;29;20211;-88
2021/07/16 00:57:31;;;;;;;21.00;7.90;;;22.50;99.90;;;;;;4920309;29;20184;-88
2021/07/16 00:59:57;;;;;;;17.02;7.95;;;22.50;99.90;;;;;;4918190;29;20236;-88
2021/07/16 01:02:25;;;;;;;15.02;7.72;;;22.50;99.90;;;;;;4919608;29;20248;-89
2021/07/16 01:04:51;;;;;;;21.25;8.35;;;22.50;99.90;;;;;;4918318;29;20181;-88
2021/07/16 01:07:16;;;;;;;20.13;8.38;;;22.50;99.90;;;;;;4902752;29;20563;-88
2021/07/16 01:09:42;;;;;;;13.70;7.63;;;22.50;99.90;;;;;;4919448;29;20181;-88
2021/07/16 01:12:09;;;;;;;17.77;8.32;;;22.40;99.90;;;;;;4918101;29;20181;-88
2021/07/16 01:14:35;;;;;;;13.45;7.88;;;22.40;99.90;;;;;;4902648;29;20185;-88
2021/07/16 01:17:01;;;;;;;20.92;9.10;;;22.40;99.90;;;;;;4917835;29;20177;-88
2021/07/16 01:19:58;;;;;;;15.35;8.63;;;22.60;99.90;;;;;;4918780;29;20275;-88
2021/07/16 01:22:27;;;;;;;19.33;9.13;;;22.50;99.90;;;;;;4910781;29;20234;-88
2021/07/16 01:24:53;;;;;;;17.48;9.75;;;22.40;99.90;;;;;;4917794;29;20538;-88
2021/07/16 01:27:19;;;;;;;15.52;8.65;;;22.40;99.90;;;;;;4917872;29;20228;-88
2021/07/16 01:29:46;;;;;;;12.75;8.63;;;22.70;99.90;;;;;;4918040;29;20216;-88
2021/07/16 01:32:13;;;;;;;15.27;8.30;;;22.40;99.90;;;;;;4917398;29;20768;-88
2021/07/16 01:34:41;;;;;;;16.50;9.50;;;;;;;;;;4919090;29;20204;-88
2021/07/16 01:37:06;;;;;;;17.75;8.75;;;22.30;99.90;;;;;;4917749;29;20200;-88
2021/07/16 01:39:32;;;;;;;15.60;9.30;;;22.40;99.90;;;;;;4919066;29;20196;-88
2021/07/16 01:42:01;;;;;;;16.27;9.63;;;22.40;99.90;;;;;;4917462;29;20220;-88
2021/07/16 01:44:27;;;;;;;20.85;10.10;;;;;;;;;;4901938;29;20181;-88
2021/07/16 01:46:52;;;;;;;13.88;9.68;;;22.20;99.90;;;;;;4916958;29;20283;-88
2021/07/16 01:49:18;;;;;;;15.05;9.10;;;22.20;99.90;;;;;;4918722;29;20653;-88
2021/07/16 01:51:45;;;;;;;15.20;9.52;;;22.30;99.90;;;;;;4918973;29;20181;-88
2021/07/16 01:54:10;;;;;;;16.30;10.15;;;22.10;99.90;;;;;;4917217;29;20932;-88
2021/07/16 01:56:36;;;;;;;15.10;9.48;;;22.10;99.90;;;;;;4918889;29;20188;-88
2021/07/16 01:59:03;;;;;;;14.18;8.70;;;22.20;99.90;;;;;;4918267;29;20256;-88
2021/07/16 02:01:28;;;;;;;15.77;9.57;;;22.10;99.90;;;;;;4918597;29;20221;-88
2021/07/16 02:03:54;;;;;;;23.15;10.32;;;22.10;99.90;;;;;;4917511;29;20311;-87
2021/07/16 02:06:20;;;;;;;14.85;9.68;;;22.10;99.90;;;;;;4917166;29;20296;-88
2021/07/16 02:08:46;;;;;;;17.15;9.65;;;22.10;99.90;;;;;;4917373;29;20545;-88
2021/07/16 02:11:12;;;;;;;15.75;9.35;;;22.30;99.90;;;;;;4917071;29;20697;-88
2021/07/16 02:13:38;;;;;;;17.02;10.25;;;22.10;99.90;;;;;;4917285;29;20269;-87
2021/07/16 02:16:05;;;;;;;18.08;9.65;;;22.00;99.90;;;;;;4901179;29;20188;-88
2021/07/16 02:18:33;;;;;;;17.77;10.93;;;22.10;99.90;;;;;;4917069;29;20181;-87
2021/07/16 02:20:58;;;;;;;22.88;10.90;;;22.00;99.90;;;;;;4918341;29;20192;-88
2021/07/16 02:23:27;;;;;;;18.13;12.43;;;22.00;99.90;;;;;;4918625;29;20177;-88
2021/07/16 02:25:53;;;;;;;15.20;11.18;;;22.20;99.90;;;;;;4917112;29;20340;-87
2021/07/16 02:28:22;;;;;;;25.38;12.13;;;22.00;99.90;;;;;;4916570;29;20522;-87
2021/07/16 02:30:50;;;;;;;21.45;11.05;;;22.00;99.90;;;;;;4917070;29;20203;-87
2021/07/16 02:33:16;;;;;;;18.95;11.35;;;21.90;99.90;;;;;;4916237;29;20749;-88
2021/07/16 02:35:43;;;;;;;20.55;11.23;;;21.90;99.90;;;;;;4916973;29;20540;-87
2021/07/16 02:38:09;;;;;;;16.77;10.85;;;;;;;;;;4917911;29;20263;-87
2021/07/16 02:40:35;;;;;;;16.48;10.73;;;21.90;99.90;;;;;;4901067;29;20287;-87
2021/07/16 02:43:02;;;;;;;18.15;10.90;;;22.00;99.90;;;;;;4916406;29;20173;-88
2021/07/16 02:45:28;;;;;;;16.95;10.23;;;;;;;;;;4916759;29;20277;-87
2021/07/16 02:47:54;;;;;;;18.85;8.75;;;21.90;99.90;;;;;;4916578;29;20216;-87
2021/07/16 02:50:29;;;;;;;17.85;9.10;;;21.90;99.90;;;;;;4916206;29;20224;-88
2021/07/16 02:52:55;;;;;;;18.80;8.82;;;21.80;99.90;;;;;;4918195;29;20240;-88
2021/07/16 02:55:21;;;;;;;16.98;9.55;;;21.90;99.90;;;;;;4916473;29;20180;-88
2021/07/16 02:57:48;;;;;;;15.98;8.95;;;21.90;99.90;;;;;;4916223;29;20190;-89
2021/07/16 03:00:16;;;;;;;17.50;8.55;;;21.90;99.90;;;;;;4915958;29;20185;-89
2021/07/16 03:02:45;;;;;;;13.07;7.93;;;21.90;99.90;;;;;;4917601;29;20177;-88
2021/07/16 03:05:12;;;;;;;13.07;7.38;;;21.90;99.90;;;;;;4916230;29;20291;-87
2021/07/16 03:07:38;;;;;;;14.15;8.43;;;21.90;99.90;;;;;;4916687;29;20255;-88
2021/07/16 03:10:09;;;;;;;14.70;8.95;;;21.80;99.90;;;;;;4900439;29;20193;-87
2021/07/16 03:12:38;;;;;;;14.07;8.85;;;21.90;99.90;;;;;;4916043;29;20638;-88
2021/07/16 03:15:24;;;;;;;13.55;8.18;;;21.90;99.90;;;;;;4916050;29;20212;-88
2021/07/16 03:17:51;;;;;;;14.13;7.70;;;21.90;99.90;;;;;;4917367;29;20283;-87
2021/07/16 03:20:39;;;;;;;15.55;7.85;;;21.90;99.90;;;;;;4900082;29;20189;-87
2021/07/16 03:23:06;;;;;;;18.75;8.77;;;21.90;99.90;;;;;;4917222;29;20212;-88
2021/07/16 03:25:32;;;;;;;14.48;8.43;;;21.90;99.90;;;;;;4917282;29;20279;-88
2021/07/16 03:27:58;;;;;;;15.52;8.10;;;21.90;99.90;;;;;;4884866;29;20705;-87
2021/07/16 03:30:28;;;;;;;15.60;7.60;;;21.90;99.90;;;;;;4915962;29;20199;-88
2021/07/16 03:32:54;;;;;;;14.70;7.88;;;21.90;99.90;;;;;;4915593;29;20243;-88
2021/07/16 03:35:20;;;;;;;13.38;7.60;;;21.90;99.90;;;;;;4915418;29;20541;-88
2021/07/16 03:37:47;;;;;;;12.18;7.43;;;21.90;99.90;;;;;;4915613;29;20199;-88
2021/07/16 03:40:16;;;;;;;10.90;7.25;;;22.00;99.90;;;;;;4899994;29;20268;-88
2021/07/16 03:42:43;;;;;;;12.90;6.93;;;22.00;99.90;;;;;;4915908;29;20184;-88
2021/07/16 03:45:12;;;;;;;11.07;7.10;;;22.00;99.90;;;;;;4915326;29;20180;-88
2021/07/16 03:47:40;;;;;;;13.10;7.63;;;22.00;99.90;;;;;;4915731;29;20204;-88
2021/07/16 03:50:06;;;;;;;13.52;7.03;;;22.00;99.90;;;;;;4915322;29;20185;-90
2021/07/16 03:52:32;;;;;;;10.32;7.28;;;22.10;99.90;;;;;;4915142;29;20226;-89
2021/07/16 03:54:57;;;;;;;12.50;7.47;;;22.10;99.90;;;;;;4915499;29;20645;-89
2021/07/16 03:57:23;;;;;;;15.38;8.07;;;19.90;99.90;;;;;;4915100;29;20188;-89
2021/07/16 03:59:49;;;;;;;14.18;7.97;;;22.10;99.90;;;;;;4916049;29;20185;-89
2021/07/16 04:02:14;;;;;;;12.40;7.78;;;22.10;99.90;;;;;;4899200;29;20645;-89
2021/07/16 04:04:40;;;;;;;16.38;8.50;;;22.10;99.90;;;;;;4915190;29;20188;-89
2021/07/16 04:07:08;;;;;;;15.98;8.57;;;22.10;99.90;;;;;;4915134;29;20267;-89
2021/07/16 04:09:34;;;;;;;11.90;7.82;;;22.10;99.90;;;;;;4914696;29;20177;-88
2021/07/16 04:12:05;;;;;;;13.65;8.18;;;22.10;99.90;;;;;;4915432;29;20590;-88
2021/07/16 04:14:52;;;;;;;13.68;8.60;;;22.00;99.90;;;;;;4916429;29;20192;-88
2021/07/16 04:17:22;;;;;;;19.02;8.60;;;22.10;99.90;;;;;;4914396;29;20291;-89
2021/07/16 04:19:49;;;;;;;15.57;9.60;;;22.20;99.90;;;;;;4916567;29;20263;-89
2021/07/16 04:22:15;;;;;;;15.65;8.95;;;22.10;99.90;;;;;;4916071;29;20180;-89
2021/07/16 04:24:44;;;;;;;14.30;9.50;;;22.10;99.90;;;;;;4915300;29;20177;-87
2021/07/16 04:27:11;;;;;;;14.48;9.52;;;22.10;99.90;;;;;;4915088;29;20205;-89
2021/07/16 04:29:38;;;;;;;13.85;9.02;;;22.10;99.90;;;;;;4914952;29;20180;-88
2021/07/16 04:32:05;;;;;;;14.98;9.20;;;22.20;99.90;;;;;;4915093;29;20320;-87
2021/07/16 04:34:35;;;;;;;21.67;9.48;;;22.20;99.90;;;;;;4915944;29;20181;-86
2021/07/16 04:37:03;;;;;;;14.30;9.50;;;22.10;99.90;;;;;;4915137;29;20196;-87
2021/07/16 04:39:29;;;;;;;16.33;8.48;;;22.40;99.90;;;;;;4915969;29;20181;-87
2021/07/16 04:41:55;;;;;;;16.20;9.10;;;22.00;99.90;;;;;;4899187;29;20533;-87
2021/07/16 04:44:21;;;;;;;13.70;8.57;;;22.10;99.90;;;;;;4898741;29;20176;-86
2021/07/16 04:46:47;;;;;;;18.00;8.90;;;22.30;99.90;;;;;;4915484;29;20287;-86
2021/07/16 04:49:12;;;;;;;25.42;9.15;;;22.20;99.90;;;;;;4915681;29;20260;-87
2021/07/16 04:51:38;;;;;;;20.35;9.73;;;22.30;99.90;;;;;;4915390;29;20250;-87
2021/07/16 04:54:06;;;;;;;17.50;10.13;;;22.30;99.90;;;;;;4883212;29;20654;-86
2021/07/16 04:56:32;;;;;;;16.55;9.52;;;22.40;99.90;;;;;;4915445;29;20263;-87
2021/07/16 04:58:58;;;;;;;15.98;10.00;;;22.40;99.90;;;;;;4914608;29;20177;-87
2021/07/16 05:01:26;;;;;;;20.90;9.38;;;22.50;99.90;;;;;;4915365;29;20200;-87
2021/07/16 05:03:53;;;;;;;19.35;9.32;;;22.60;99.90;;;;;;4915931;29;20204;-87
2021/07/16 05:06:20;;;;;;;17.05;9.68;;;22.60;99.90;;;;;;4914765;29;20666;-87
2021/07/16 05:08:47;;;;;;;19.38;9.73;;;22.70;99.90;;;;;;4916198;29;20185;-88
2021/07/16 05:11:13;;;;;;;22.23;10.70;;;22.70;99.90;;;;;;4915558;29;20712;-87
2021/07/16 05:13:39;;;;;;;15.57;10.20;;;22.80;99.90;;;;;;4914154;29;20189;-87
2021/07/16 05:16:07;;;;;;;22.77;9.90;;;22.90;99.90;;;;;;4899015;29;20637;-87
2021/07/16 05:18:33;;;;;;;20.38;10.15;;;23.00;99.90;;;;;;4914785;29;20181;-87
2021/07/16 05:21:00;;;;;;;22.75;10.27;;;23.10;99.90;;;;;;4917795;29;20267;-87
2021/07/16 05:23:26;;;;;;;17.85;10.68;;;23.10;99.90;;;;;;4917930;29;20189;-86
2021/07/16 05:25:53;;;;;;;20.08;10.77;;;23.30;99.90;;;;;;4918016;29;20264;-87
2021/07/16 05:28:19;;;;;;;32.40;11.38;;;23.40;99.90;;;;;;4917748;29;20223;-87
2021/07/16 05:30:45;;;;;;;23.40;10.90;;;23.60;99.90;;;;;;4919353;29;20186;-86
2021/07/16 05:33:11;;;;;;;24.02;10.85;;;23.70;99.90;;;;;;4901820;29;20248;-87
2021/07/16 05:35:37;;;;;;;24.48;11.15;;;23.80;99.90;;;;;;4917885;29;20248;-88
2021/07/16 05:38:03;;;;;;;23.33;11.57;;;23.90;99.90;;;;;;4902099;29;20192;-87
2021/07/16 05:40:28;;;;;;;21.48;10.93;;;24.00;99.90;;;;;;4917758;29;20183;-88
2021/07/16 05:42:54;;;;;;;20.10;10.68;;;24.00;99.90;;;;;;4917528;29;20181;-87
2021/07/16 05:45:20;;;;;;;18.13;11.00;;;24.00;99.90;;;;;;4919023;29;20181;-88
2021/07/16 05:47:46;;;;;;;19.27;10.95;;;24.00;99.90;;;;;;4918776;29;20573;-88
2021/07/16 05:50:13;;;;;;;23.90;11.32;;;24.10;99.90;;;;;;4901919;29;20220;-87
2021/07/16 05:52:38;;;;;;;25.48;11.48;;;24.10;99.90;;;;;;4916981;29;20189;-86
2021/07/16 05:55:05;;;;;;;22.92;11.50;;;24.10;99.90;;;;;;4918606;29;20705;-86
2021/07/16 05:57:31;;;;;;;20.05;10.20;;;24.20;99.90;;;;;;4901615;29;20189;-87
2021/07/16 06:00:01;;;;;;;20.10;11.38;;;24.30;99.90;;;;;;4917639;29;20219;-86
2021/07/16 06:02:27;;;;;;;17.00;10.18;;;24.40;99.90;;;;;;4918457;29;20185;-87
2021/07/16 06:04:53;;;;;;;23.08;10.50;;;24.50;99.90;;;;;;4901303;29;20268;-86
2021/07/16 06:07:19;;;;;;;18.52;9.60;;;24.60;99.90;;;;;;4901328;29;20208;-86
2021/07/16 06:09:45;;;;;;;20.70;11.23;;;24.70;99.90;;;;;;4916956;29;20195;-86
2021/07/16 06:12:11;;;;;;;25.83;10.75;;;24.70;99.90;;;;;;4901109;29;20325;-87
2021/07/16 06:14:36;;;;;;;19.33;9.75;;;24.80;99.90;;;;;;4901155;29;20293;-87
2021/07/16 06:17:02;;;;;;;16.92;10.05;;;24.80;99.90;;;;;;4917776;29;20275;-87
2021/07/16 06:19:28;;;;;;;18.27;9.43;;;24.90;99.90;;;;;;4916658;29;20603;-86
2021/07/16 06:21:54;;;;;;;17.15;8.88;;;25.00;99.90;;;;;;4885384;29;20696;-86
2021/07/16 06:24:19;;;;;;;24.85;10.75;;;25.10;99.90;;;;;;4917323;29;20618;-86
2021/07/16 06:26:45;;;;;;;13.65;9.13;;;25.10;99.90;;;;;;4918039;29;20255;-86
2021/07/16 06:29:10;;;;;;;20.73;9.77;;;25.20;99.90;;;;;;4897712;29;20197;-87
2021/07/16 06:31:36;;;;;;;15.15;9.13;;;25.30;99.90;;;;;;4898718;29;20231;-86
2021/07/16 06:34:03;;;;;;;17.13;8.25;;;25.30;99.90;;;;;;4916226;29;20774;-87
2021/07/16 06:36:29;;;;;;;17.42;9.27;;;25.40;99.90;;;;;;4916507;29;20204;-86
2021/07/16 06:38:55;;;;;;;16.92;9.55;;;25.40;99.90;;;;;;4917363;29;20185;-88
2021/07/16 06:41:20;;;;;;;12.77;8.77;;;25.50;99.90;;;;;;4899257;29;20216;-86
2021/07/16 06:43:46;;;;;;;16.25;9.05;;;25.40;99.90;;;;;;4883321;29;20196;-87
2021/07/16 06:46:12;;;;;;;18.40;9.20;;;25.50;99.90;;;;;;4915815;29;20184;-88
2021/07/16 06:48:42;;;;;;;13.85;8.80;;;25.70;99.90;;;;;;4914345;29;20212;-88
2021/07/16 06:51:12;;;;;;;21.15;9.75;;;25.80;99.90;;;;;;4914506;29;20187;-88
2021/07/16 06:53:38;;;;;;;17.50;9.43;;;25.90;99.90;;;;;;4914047;29;20267;-87
2021/07/16 06:56:04;;;;;;;16.48;9.23;;;26.00;99.90;;;;;;4915839;29;20184;-87
2021/07/16 06:58:30;;;;;;;17.42;9.93;;;26.10;99.90;;;;;;4916040;29;20704;-88
2021/07/16 07:00:57;;;;;;;13.52;9.05;;;26.30;99.90;;;;;;4916589;29;20188;-87
2021/07/16 07:03:25;;;;;;;15.45;9.18;;;26.30;99.90;;;;;;4916367;29;20191;-88
2021/07/16 07:06:02;;;;;;;16.52;8.73;;;26.30;99.90;;;;;;4916027;29;20719;-88
2021/07/16 07:08:28;;;;;;;14.40;8.63;;;26.30;99.90;;;;;;4918394;29;20221;-88
2021/07/16 07:10:54;;;;;;;19.60;8.70;;;26.60;99.90;;;;;;4916021;29;20192;-88
2021/07/16 07:13:19;;;;;;;15.82;9.18;;;26.40;99.90;;;;;;4917499;29;20183;-87
2021/07/16 07:15:45;;;;;;;19.90;10.18;;;26.70;99.90;;;;;;4917527;29;20177;-89
2021/07/16 07:18:13;;;;;;;15.60;8.90;;;26.70;99.90;;;;;;4900332;29;20220;-87
2021/07/16 07:20:39;;;;;;;17.40;8.98;;;26.90;99.90;;;;;;4900190;29;20638;-86
2021/07/16 07:23:05;;;;;;;17.10;8.75;;;26.70;99.90;;;;;;4915959;29;20306;-87
2021/07/16 07:25:31;;;;;;;16.83;8.93;;;26.70;99.90;;;;;;4916169;29;20184;-86
2021/07/16 07:27:57;;;;;;;14.68;9.65;;;26.80;99.90;;;;;;4916955;29;20688;-88
2021/07/16 07:30:23;;;;;;;16.05;9.40;;;26.90;99.90;;;;;;4917147;29;20181;-87
2021/07/16 07:32:49;;;;;;;16.80;9.68;;;27.00;99.90;;;;;;4915298;29;20232;-87
2021/07/16 07:35:15;;;;;;;16.05;9.05;;;27.10;99.90;;;;;;4915659;29;20543;-88
2021/07/16 07:37:41;;;;;;;16.17;9.52;;;27.20;99.90;;;;;;4916675;29;20553;-87
2021/07/16 07:40:11;;;;;;;20.27;10.00;;;27.30;99.90;;;;;;4915819;29;20191;-87
2021/07/16 07:42:36;;;;;;;23.55;9.73;;;27.40;99.90;;;;;;4916045;29;20184;-88
2021/07/16 07:45:03;;;;;;;18.20;9.85;;;27.50;99.90;;;;;;4916538;29;20180;-87
2021/07/16 07:47:32;;;;;;;17.38;9.27;;;27.50;99.90;;;;;;4916725;29;20204;-88
2021/07/16 07:50:06;;;;;;;14.88;9.55;;;27.40;99.90;;;;;;4916212;29;20196;-88
2021/07/16 07:52:32;;;;;;;18.40;9.52;;;27.20;99.90;;;;;;4913711;29;20184;-88
2021/07/16 07:54:58;;;;;;;21.77;9.88;;;27.00;99.90;;;;;;4898057;29;20206;-87
2021/07/16 07:57:23;;;;;;;14.43;9.02;;;27.00;99.90;;;;;;4914215;29;20199;-86
2021/07/16 07:59:49;;;;;;;22.75;9.88;;;27.00;99.90;;;;;;4915069;29;20185;-86
2021/07/16 08:02:15;;;;;;;22.50;9.50;;;27.40;99.90;;;;;;4915423;29;20180;-87
2021/07/16 08:04:41;;;;;;;16.40;9.13;;;27.30;99.90;;;;;;4898079;29;20591;-86
2021/07/16 08:07:07;;;;;;;18.10;9.32;;;27.30;99.90;;;;;;4899806;29;20227;-86
2021/07/16 08:09:33;;;;;;;20.48;9.43;;;27.30;99.90;;;;;;4899566;29;20653;-85
2021/07/16 08:12:00;;;;;;;12.05;8.52;;;27.50;99.90;;;;;;4914964;29;20673;-85
2021/07/16 08:14:26;;;;;;;17.77;8.18;;;27.50;99.90;;;;;;4916437;29;20172;-86
2021/07/16 08:16:52;;;;;;;15.57;8.35;;;27.60;99.90;;;;;;4914850;29;20200;-86
2021/07/16 08:19:18;;;;;;;13.90;8.30;;;27.50;99.90;;;;;;4914725;29;20653;-87
2021/07/16 08:21:50;;;;;;;14.40;9.20;;;27.40;99.90;;;;;;4914230;29;20184;-86
2021/07/16 08:24:15;;;;;;;14.80;7.90;;;27.30;99.90;;;;;;4915395;29;20211;-85
2021/07/16 08:26:42;;;;;;;13.50;7.93;;;27.30;99.90;;;;;;4899183;29;20615;-87
2021/07/16 08:29:09;;;;;;;16.05;8.43;;;27.40;99.90;;;;;;4914169;29;20207;-86
2021/07/16 08:31:35;;;;;;;23.48;8.80;;;27.40;99.90;;;;;;4915017;29;20240;-86
2021/07/16 08:34:02;;;;;;;14.90;8.32;;;27.60;99.90;;;;;;4899600;29;20188;-87
2021/07/16 08:36:28;;;;;;;15.00;8.65;;;27.80;99.90;;;;;;4898612;29;20192;-87
2021/07/16 08:38:53;;;;;;;15.13;9.25;;;28.00;99.90;;;;;;4915579;29;20199;-87
2021/07/16 08:41:19;;;;;;;22.65;8.90;;;28.10;99.90;;;;;;4899316;29;20800;-86
2021/07/16 08:43:45;;;;;;;14.48;8.95;;;28.10;99.90;;;;;;4914370;29;20184;-87
2021/07/16 08:46:11;;;;;;;17.15;7.78;;;28.20;99.90;;;;;;4914392;29;20669;-87
2021/07/16 08:48:40;;;;;;;17.30;8.43;;;28.30;99.90;;;;;;4914393;29;20189;-87
2021/07/16 08:51:08;;;;;;;14.80;8.25;;;29.80;99.90;;;;;;4916279;29;20176;-87
2021/07/16 08:53:33;;;;;;;11.88;8.10;;;28.50;99.90;;;;;;4899378;29;20192;-86
2021/07/16 08:56:02;;;;;;;18.00;9.20;;;28.50;99.90;;;;;;4918078;29;20679;-87
2021/07/16 08:58:28;;;;;;;15.75;8.93;;;28.60;99.90;;;;;;4920158;29;20215;-87
2021/07/16 09:00:53;;;;;;;16.65;8.10;;;28.70;99.90;;;;;;4899681;29;20197;-88
2021/07/16 09:03:19;;;;;;;17.35;9.25;;;28.70;99.90;;;;;;4918084;29;20276;-87
2021/07/16 09:05:46;;;;;;;13.30;8.30;;;28.80;99.90;;;;;;4918192;29;20203;-88
2021/07/16 09:08:19;;;;;;;13.85;8.35;;;29.00;99.90;;;;;;4917219;29;20204;-87
2021/07/16 09:10:46;;;;;;;13.70;8.70;;;28.90;99.90;;;;;;4917480;29;20192;-90
2021/07/16 09:13:13;;;;;;;15.27;8.70;;;27.20;99.90;;;;;;4920051;29;20213;-87
2021/07/16 09:15:39;;;;;;;13.65;9.02;;;29.10;99.90;;;;;;4919274;29;20181;-86
2021/07/16 09:18:24;;;;;;;15.85;8.85;;;28.70;99.90;;;;;;4917858;29;20664;-87
2021/07/16 09:21:04;;;;;;;12.00;8.52;;;29.20;99.90;;;;;;4917479;29;20219;-90
2021/07/16 09:23:34;;;;;;;16.10;8.70;;;29.10;99.90;;;;;;4933153;29;20180;-92
2021/07/16 09:26:02;;;;;;;13.85;7.60;;;29.20;99.90;;;;;;4918515;29;20191;-90
2021/07/16 09:28:33;;;;;;;15.52;8.38;;;29.20;99.90;;;;;;4920450;29;20212;-91
2021/07/16 09:31:23;;;;;;;8.98;6.68;;;30.00;99.90;;;;;;4900987;29;20213;-90
2021/07/16 09:33:56;;;;;;;11.27;7.30;;;29.60;99.90;;;;;;4902986;29;20248;-92
2021/07/16 09:36:30;;;;;;;17.90;7.57;;;28.10;99.90;;;;;;4901960;29;20585;-91
2021/07/16 09:39:09;;;;;;;13.57;7.50;;;29.30;99.90;;;;;;4903317;29;20184;-93
2021/07/16 09:41:53;;;;;;;12.73;7.35;;;29.80;99.90;;;;;;4902304;29;20275;-94
2021/07/16 09:44:33;;;;;;;18.70;7.90;;;29.90;99.90;;;;;;4902493;29;20208;-92
2021/07/16 09:47:13;;;;;;;13.10;7.32;;;29.80;99.90;;;;;;4919702;29;20223;-93
2021/07/16 09:49:41;;;;;;;12.93;7.05;;;29.80;99.90;;;;;;4902412;29;20202;-92
2021/07/16 09:52:09;;;;;;;18.25;7.40;;;30.10;99.90;;;;;;4902002;29;20244;-93
2021/07/16 09:54:38;;;;;;;12.73;6.93;;;30.60;99.90;;;;;;4902606;29;20619;-92
2021/07/16 09:58:11;;;;;;;;;;;;;;;;;;;;;
2021/07/16 10:00:40;;;;;;;12.57;7.38;;;30.00;99.90;;;;;;4912906;29;20588;-93
2021/07/16 10:03:14;;;;;;;12.40;6.88;;;31.00;99.90;;;;;;4902900;29;20259;-95
2021/07/16 10:09:58;;;;;;;8.90;6.43;;;31.30;99.90;;;;;;4821464;29;20196;-96
2021/07/16 10:12:24;;;;;;;8.63;5.82;;;31.20;99.90;;;;;;4809054;29;20188;-96
2021/07/16 10:15:00;;;;;;;12.95;6.90;;;31.10;99.90;;;;;;4881528;29;20188;-94
2021/07/16 10:17:57;;;;;;;11.20;6.63;;;30.80;99.90;;;;;;4893589;29;20179;-96
2021/07/16 10:20:22;;;;;;;16.60;7.00;;;30.70;99.90;;;;;;4918889;29;20584;-93
2021/07/16 10:22:50;;;;;;;12.07;6.22;;;30.80;99.90;;;;;;4919799;29;20282;-95
2021/07/16 10:28:59;;;;;;;11.68;5.18;;;31.30;99.90;;;;;;4854093;29;20209;-96
2021/07/16 10:31:54;;;;;;;9.98;5.80;;;32.70;99.90;;;;;;4901052;29;20231;-95
2021/07/16 10:34:41;;;;;;;11.35;5.82;;;31.30;99.90;;;;;;4839811;29;20256;-94
2021/07/16 10:37:18;;;;;;;7.30;5.38;;;31.20;98.30;;;;;;4829988;29;20683;-93
2021/07/16 10:40:18;;;;;;;8.23;5.35;;;32.10;98.20;;;;;;4824456;29;20279;-94
2021/07/16 10:43:03;;;;;;;7.45;5.80;;;31.00;97.20;;;;;;4821080;29;20286;-96
2021/07/16 10:46:15;;;;;;;12.38;6.07;;;31.10;98.10;;;;;;4868952;29;20201;-94
2021/07/16 10:48:44;;;;;;;12.30;6.10;;;30.20;98.50;;;;;;4903681;29;20280;-96
2021/07/16 10:51:26;;;;;;;14.05;5.88;;;28.40;98.50;;;;;;4902335;29;20752;-96
2021/07/16 10:53:53;;;;;;;14.23;6.22;;;29.70;96.90;;;;;;4899910;29;20259;-95
2021/07/16 10:56:56;;;;;;;10.50;6.70;;;31.20;98.50;;;;;;4900840;29;20192;-94
2021/07/16 10:59:48;;;;;;;14.25;7.88;;;31.60;97.80;;;;;;4899839;29;20176;-95
2021/07/16 11:02:42;;;;;;;18.67;8.70;;;31.50;99.40;;;;;;4899581;29;20180;-95
2021/07/16 11:05:31;;;;;;;15.13;8.65;;;31.80;99.40;;;;;;4898382;29;20184;-88
2021/07/16 11:07:58;;;;;;;10.07;7.88;;;31.60;99.90;;;;;;4899610;29;20213;-95
2021/07/16 11:10:45;;;;;;;15.23;8.75;;;31.40;99.90;;;;;;4918499;29;20189;-95
2021/07/16 11:13:30;;;;;;;14.60;9.40;;;31.20;99.90;;;;;;4901733;29;20180;-94
2021/07/16 11:18:54;;;;;;;21.67;8.77;;;31.40;99.90;;;;;;4919848;29;20204;-92
2021/07/16 11:21:48;;;;;;;12.05;8.45;;;31.30;99.90;;;;;;4898100;29;20601;-93
2021/07/16 11:26:49;;;;;;;15.68;8.18;;;31.00;99.90;;;;;;4915883;29;20208;-93
2021/07/16 11:36:22;;;;;;;13.80;8.05;;;30.10;99.90;;;;;;4814292;29;20215;-94
2021/07/16 11:39:07;;;;;;;12.15;8.55;;;30.90;99.90;;;;;;4800279;29;20203;-95
2021/07/16 11:41:37;;;;;;;16.55;9.07;;;30.20;99.90;;;;;;4948595;23;20259;-96
2021/07/16 11:44:05;;;;;;;15.07;9.60;;;27.90;99.90;;;;;;4902916;29;20181;-96
2021/07/16 11:46:31;;;;;;;14.35;8.85;;;30.00;99.90;;;;;;4899860;29;20201;-95
2021/07/16 11:48:58;;;;;;;17.17;9.77;;;30.00;99.90;;;;;;4906869;29;20182;-94
2021/07/16 11:57:10;;;;;;;16.40;9.68;;;29.70;99.90;;;;;;4962715;23;20240;-96
2021/07/16 11:59:48;;;;;;;21.58;8.73;;;29.70;99.90;;;;;;4889968;29;20175;-96
2021/07/16 12:02:40;;;;;;;15.05;9.65;;;29.80;99.90;;;;;;5193224;23;20238;31
2021/07/16 12:12:45;;;;;;;13.77;9.50;;;29.70;99.90;;;;;;4945581;28;20224;-93
2021/07/16 12:20:14;;;;;;;21.63;9.63;;;30.30;99.90;;;;;;4906643;29;20241;-95
2021/07/16 12:28:39;;;;;;;17.80;9.45;;;31.10;99.90;;;;;;5487804;23;20431;31
2021/07/16 12:34:42;;;;;;;;;;;;;;;;;;;;;
2021/07/16 12:37:25;;;;;;;15.70;8.95;;;31.50;99.90;;;;;;5295936;23;11252718;31
2021/07/16 12:48:58;;;;;;;;;;;;;;;;;;;;;
2021/07/16 12:51:39;;;;;;;14.27;9.60;;;32.40;99.90;;;;;;4842361;29;20282;-96
2021/07/16 12:54:16;;;;;;;15.45;9.30;;;31.60;99.90;;;;;;4841362;29;20209;-96
2021/07/16 12:56:47;;;;;;;14.95;8.60;;;31.80;99.90;;;;;;4887364;23;20281;-96
2021/07/16 12:59:28;;;;;;;14.10;8.40;;;31.70;99.90;;;;;;4855713;29;20240;-96
2021/07/16 13:02:10;;;;;;;14.68;9.15;;;31.50;99.90;;;;;;4835956;29;20179;-94
2021/07/16 13:04:35;;;;;;;18.88;9.52;;;31.70;99.90;;;;;;4819183;29;20260;-96
2021/07/16 13:07:01;;;;;;;12.60;8.35;;;31.50;99.90;;;;;;4848520;29;20302;-95
2021/07/16 13:09:32;;;;;;;14.27;9.10;;;31.50;99.50;;;;;;4844876;29;20199;-96
2021/07/16 13:12:12;;;;;;;16.63;8.48;;;30.90;99.90;;;;;;4831614;29;20195;-95
2021/07/16 13:14:48;;;;;;;13.95;9.25;;;31.40;99.90;;;;;;4850782;29;20194;-95
2021/07/16 13:17:36;;;;;;;13.88;8.75;;;31.00;99.90;;;;;;4846533;29;20197;-96
2021/07/16 13:20:18;;;;;;;15.23;8.73;;;30.90;99.90;;;;;;4847082;29;20187;-96
2021/07/16 13:22:47;;;;;;;16.83;8.35;;;31.90;99.90;;;;;;4940042;23;20237;-95
2021/07/16 13:25:20;;;;;;;12.75;8.20;;;30.50;99.90;;;;;;4865545;29;20246;-95
2021/07/16 13:27:50;;;;;;;15.23;8.63;;;31.50;99.90;;;;;;5188903;23;20246;-95
2021/07/16 13:30:17;;;;;;;15.57;8.63;;;30.30;99.90;;;;;;4873914;29;20194;-95
2021/07/16 13:32:43;;;;;;;13.18;8.85;;;30.30;99.90;;;;;;4876059;29;20685;-95
2021/07/16 13:35:12;;;;;;;16.48;8.73;;;30.70;99.90;;;;;;4870366;29;20198;-96
2021/07/16 13:37:37;;;;;;;14.82;9.02;;;32.30;99.90;;;;;;4887429;23;20308;-94
2021/07/16 13:40:08;;;;;;;12.10;8.20;;;31.40;99.90;;;;;;4827199;29;20187;-95
2021/07/16 13:42:43;;;;;;;15.82;8.60;;;31.40;99.90;;;;;;4832475;29;20230;-93
2021/07/16 13:45:10;;;;;;;11.48;8.00;;;31.50;99.90;;;;;;4835375;29;20270;-96
2021/07/16 13:47:36;;;;;;;12.10;8.00;;;32.40;99.90;;;;;;4841645;29;20235;-96
2021/07/16 13:50:02;;;;;;;15.65;9.25;;;31.80;99.90;;;;;;4839616;29;20197;-92